createdAt,value
2023-01-07T00:01:09.217Z,-8.77
2023-01-07T00:03:37.058Z,-8.65
2023-01-07T00:06:15.108Z,-8.63
2023-01-07T00:08:44.024Z,-8.64
2023-01-07T00:11:16.417Z,-8.69
2023-01-07T00:13:44.780Z,-8.77
2023-01-07T00:16:14.160Z,-8.95
2023-01-07T00:18:41.588Z,-8.84
2023-01-07T00:21:11.556Z,-8.83
2023-01-07T00:23:40.418Z,-8.94
2023-01-07T00:26:19.151Z,-8.86
2023-01-07T00:28:48.638Z,-8.83
2023-01-07T00:31:36.690Z,-8.88
2023-01-07T00:34:04.548Z,-8.91
2023-01-07T00:36:33.770Z,-8.88
2023-01-07T00:39:04.991Z,-8.86
2023-01-07T00:41:32.775Z,-8.95
2023-01-07T00:43:59.513Z,-8.79
2023-01-07T00:46:26.995Z,-8.82
2023-01-07T00:48:54.097Z,-8.84
2023-01-07T00:51:20.819Z,-8.86
2023-01-07T00:53:48.098Z,-8.87
2023-01-07T00:56:17.694Z,-8.89
2023-01-07T00:58:44.722Z,-8.86
2023-01-07T01:01:12.437Z,-8.87
2023-01-07T01:03:40.236Z,-8.91
2023-01-07T01:06:10.937Z,-8.88
2023-01-07T01:08:38.217Z,-8.87
2023-01-07T01:11:09.838Z,-8.86
2023-01-07T01:13:38.704Z,-8.97
2023-01-07T01:16:14.720Z,-8.86
2023-01-07T01:18:42.173Z,-8.82
2023-01-07T01:21:12.225Z,-8.78
2023-01-07T01:23:39.723Z,-8.73
2023-01-07T01:26:11.786Z,-8.74
2023-01-07T01:28:39.565Z,-8.73
2023-01-07T01:31:08.397Z,-8.75
2023-01-07T01:33:36.184Z,-8.83
2023-01-07T01:36:05.401Z,-8.71
2023-01-07T01:38:32.137Z,-8.70
2023-01-07T01:40:59.705Z,-8.67
2023-01-07T01:43:35.167Z,-8.70
2023-01-07T01:46:05.933Z,-8.82
2023-01-07T01:48:35.666Z,-8.70
2023-01-07T01:51:03.891Z,-8.77
2023-01-07T01:53:33.969Z,-8.66
2023-01-07T01:56:11.823Z,-8.74
2023-01-07T01:59:01.210Z,-8.62
2023-01-07T02:01:33.556Z,-8.61
2023-01-07T02:04:11.874Z,-8.66
2023-01-07T02:06:46.719Z,-8.65
2023-01-07T02:09:14.135Z,-8.71
2023-01-07T02:12:29.873Z,-8.75
2023-01-07T02:15:05.982Z,-8.77
2023-01-07T02:17:56.447Z,-8.82
2023-01-07T02:20:46.662Z,-8.92
2023-01-07T02:23:39.872Z,-9.00
2023-01-07T02:26:37.767Z,-9.10
2023-01-07T02:29:07.700Z,-9.07
2023-01-07T02:32:12.054Z,-9.09
2023-01-07T02:34:48.399Z,-9.21
2023-01-07T02:37:39.223Z,-9.16
2023-01-07T02:40:09.066Z,-9.15
2023-01-07T02:43:25.179Z,-9.11
2023-01-07T02:46:03.302Z,-9.09
2023-01-07T02:48:31.779Z,-9.19
2023-01-07T02:50:59.660Z,-9.09
2023-01-07T02:53:26.361Z,-9.13
2023-01-07T02:56:14.445Z,-9.14
2023-01-07T02:59:15.288Z,-9.24
2023-01-07T03:02:01.599Z,-9.15
2023-01-07T03:04:56.479Z,-9.21
2023-01-07T03:07:53.897Z,-9.33
2023-01-07T03:10:54.608Z,-9.29
2023-01-07T03:13:26.883Z,-9.29
2023-01-07T03:16:03.038Z,-9.31
2023-01-07T03:18:32.946Z,-9.34
2023-01-07T03:21:05.914Z,-9.38
2023-01-07T03:23:35.673Z,-9.41
2023-01-07T03:26:06.606Z,-9.44
2023-01-07T03:28:40.527Z,-9.32
2023-01-07T03:31:12.207Z,-9.34
2023-01-07T03:33:52.205Z,-9.36
2023-01-07T03:36:23.423Z,-9.37
2023-01-07T03:38:53.017Z,-9.41
2023-01-07T03:41:39.557Z,-9.36
2023-01-07T03:44:06.353Z,-9.38
2023-01-07T03:46:34.277Z,-9.28
2023-01-07T03:49:00.977Z,-9.38
2023-01-07T03:51:28.001Z,-9.29
2023-01-07T03:53:56.034Z,-9.31
2023-01-07T03:56:23.041Z,-9.45
2023-01-07T03:58:49.716Z,-9.32
2023-01-07T04:01:16.688Z,-9.43
2023-01-07T04:03:43.716Z,-9.36
2023-01-07T04:06:10.634Z,-9.42
2023-01-07T04:08:37.334Z,-9.44
2023-01-07T04:11:04.995Z,-9.45
2023-01-07T04:13:32.231Z,-9.47
2023-01-07T04:15:58.851Z,-9.63
2023-01-07T04:18:25.831Z,-9.55
2023-01-07T04:20:52.655Z,-9.59
2023-01-07T04:23:19.391Z,-9.69
2023-01-07T04:25:48.489Z,-9.59
2023-01-07T04:28:16.691Z,-9.56
2023-01-07T04:30:43.689Z,-9.52
2023-01-07T04:33:10.659Z,-9.47
2023-01-07T04:35:39.994Z,-9.42
2023-01-07T04:38:07.194Z,-9.39
2023-01-07T04:40:34.575Z,-9.36
2023-01-07T04:43:01.533Z,-9.33
2023-01-07T04:45:28.441Z,-9.29
2023-01-07T04:47:57.248Z,-9.30
2023-01-07T04:50:24.793Z,-9.30
2023-01-07T04:52:52.244Z,-9.39
2023-01-07T04:55:19.392Z,-9.29
2023-01-07T04:57:46.119Z,-9.38
2023-01-07T05:00:14.092Z,-9.24
2023-01-07T05:02:41.876Z,-9.22
2023-01-07T05:05:09.780Z,-9.22
2023-01-07T05:07:37.423Z,-9.27
2023-01-07T05:10:05.486Z,-9.23
2023-01-07T05:12:36.969Z,-9.19
2023-01-07T05:15:06.247Z,-9.19
2023-01-07T05:17:33.705Z,-9.19
2023-01-07T05:20:01.592Z,-9.22
2023-01-07T05:22:29.217Z,-9.28
2023-01-07T05:24:55.935Z,-9.34
2023-01-07T05:27:23.548Z,-9.31
2023-01-07T05:29:50.694Z,-9.33
2023-01-07T05:32:17.517Z,-9.41
2023-01-07T05:34:44.321Z,-9.42
2023-01-07T05:37:11.367Z,-9.45
2023-01-07T05:39:38.835Z,-9.48
2023-01-07T05:42:05.870Z,-9.54
2023-01-07T05:44:34.423Z,-9.60
2023-01-07T05:47:01.134Z,-9.64
2023-01-07T05:49:27.774Z,-9.65
2023-01-07T05:51:54.628Z,-9.68
2023-01-07T05:54:21.225Z,-9.72
2023-01-07T05:56:47.827Z,-9.71
2023-01-07T05:59:14.748Z,-9.76
2023-01-07T06:01:41.363Z,-9.89
2023-01-07T06:04:08.416Z,-9.90
2023-01-07T06:06:35.040Z,-9.90
2023-01-07T06:09:01.688Z,-9.85
2023-01-07T06:11:28.624Z,-9.78
2023-01-07T06:13:55.301Z,-9.75
2023-01-07T06:16:21.972Z,-9.73
2023-01-07T06:18:48.854Z,-9.81
2023-01-07T06:21:16.793Z,-9.71
2023-01-07T06:23:43.618Z,-9.75
2023-01-07T06:26:10.529Z,-9.76
2023-01-07T06:28:37.182Z,-9.74
2023-01-07T06:31:03.942Z,-9.71
2023-01-07T06:33:33.323Z,-9.74
2023-01-07T06:36:00.236Z,-9.74
2023-01-07T06:38:26.890Z,-9.77
2023-01-07T06:40:53.743Z,-9.80
2023-01-07T06:43:20.440Z,-9.87
2023-01-07T06:45:47.249Z,-9.84
2023-01-07T06:48:14.206Z,-9.95
2023-01-07T06:50:40.924Z,-9.87
2023-01-07T06:53:07.597Z,-10.00
2023-01-07T06:55:34.494Z,-10.00
2023-01-07T06:58:01.243Z,-9.88
2023-01-07T07:00:27.874Z,-9.84
2023-01-07T07:02:54.844Z,-9.82
2023-01-07T07:05:21.543Z,-9.92
2023-01-07T07:07:48.785Z,-9.80
2023-01-07T07:10:15.859Z,-9.87
2023-01-07T07:12:42.557Z,-9.75
2023-01-07T07:15:09.629Z,-9.75
2023-01-07T07:17:36.509Z,-9.77
2023-01-07T07:20:03.778Z,-9.88
2023-01-07T07:22:30.526Z,-9.84
2023-01-07T07:24:57.536Z,-9.87
2023-01-07T07:27:24.269Z,-9.87
2023-01-07T07:29:50.932Z,-9.92
2023-01-07T07:32:17.909Z,-9.76
2023-01-07T07:34:44.548Z,-9.83
2023-01-07T07:37:11.280Z,-9.82
2023-01-07T07:39:38.293Z,-9.77
2023-01-07T07:42:05.776Z,-9.77
2023-01-07T07:44:32.434Z,-9.75
2023-01-07T07:46:59.368Z,-9.69
2023-01-07T07:49:26.044Z,-9.75
2023-01-07T07:51:52.759Z,-9.66
2023-01-07T07:54:20.440Z,-9.65
2023-01-07T07:56:48.040Z,-9.79
2023-01-07T07:59:14.788Z,-9.65
2023-01-07T08:01:41.840Z,-9.72
2023-01-07T08:04:08.812Z,-9.60
2023-01-07T08:06:35.724Z,-9.53
2023-01-07T08:09:02.404Z,-9.39
2023-01-07T08:11:29.408Z,-9.27
2023-01-07T08:13:56.170Z,-9.26
2023-01-07T08:16:22.827Z,-9.10
2023-01-07T08:18:49.823Z,-9.12
2023-01-07T08:21:16.617Z,-8.98
2023-01-07T08:23:43.237Z,-8.98
2023-01-07T08:26:10.213Z,-9.12
2023-01-07T08:28:37.827Z,-9.13
2023-01-07T08:31:06.346Z,-9.29
2023-01-07T08:33:37.593Z,-9.22
2023-01-07T08:36:09.382Z,-9.19
2023-01-07T08:38:39.027Z,-9.15
2023-01-07T08:41:05.761Z,-9.16
2023-01-07T08:43:33.401Z,-9.22
2023-01-07T08:46:00.227Z,-9.25
2023-01-07T08:48:26.996Z,-9.16
2023-01-07T08:50:54.484Z,-9.30
2023-01-07T08:53:23.045Z,-9.31
2023-01-07T08:55:50.125Z,-9.28
2023-01-07T08:58:16.752Z,-9.33
2023-01-07T09:00:43.968Z,-9.36
2023-01-07T09:03:10.648Z,-9.34
2023-01-07T09:05:37.327Z,-9.34
2023-01-07T09:08:04.463Z,-9.33
2023-01-07T09:10:31.193Z,-9.24
2023-01-07T09:12:57.983Z,-9.04
2023-01-07T09:15:25.248Z,-8.93
2023-01-07T09:17:52.028Z,-8.83
2023-01-07T09:20:19.233Z,-8.89
2023-01-07T09:22:46.545Z,-8.75
2023-01-07T09:25:13.512Z,-8.66
2023-01-07T09:27:41.008Z,-8.60
2023-01-07T09:30:09.553Z,-8.57
2023-01-07T09:32:36.321Z,-8.48
2023-01-07T09:35:03.671Z,-8.39
2023-01-07T09:37:30.725Z,-8.31
2023-01-07T09:39:57.405Z,-8.29
2023-01-07T09:42:34.068Z,-8.29
2023-01-07T09:45:22.937Z,-8.28
2023-01-07T09:47:54.223Z,-8.29
2023-01-07T09:50:32.344Z,-8.24
2023-01-07T09:53:05.370Z,-8.21
2023-01-07T09:55:36.030Z,-8.16
2023-01-07T09:58:03.108Z,-8.12
2023-01-07T10:00:33.161Z,-8.21
2023-01-07T10:03:33.007Z,-8.26
2023-01-07T10:06:26.180Z,-8.24
2023-01-07T10:09:07.742Z,-8.33
2023-01-07T10:12:12.573Z,-8.30
2023-01-07T10:15:11.873Z,-8.27
2023-01-07T10:17:53.465Z,-8.24
2023-01-07T10:20:44.164Z,-8.26
2023-01-07T10:23:14.623Z,-8.12
2023-01-07T10:25:48.703Z,-8.14
2023-01-07T10:28:25.437Z,-8.11
2023-01-07T10:30:52.311Z,-8.05
2023-01-07T10:33:29.620Z,-8.03
2023-01-07T10:36:31.708Z,-7.98
2023-01-07T10:39:19.839Z,-7.90
2023-01-07T10:42:28.111Z,-7.89
2023-01-07T10:45:16.473Z,-7.91
2023-01-07T10:48:07.555Z,-7.97
2023-01-07T10:50:56.343Z,-7.89
2023-01-07T10:54:03.491Z,-7.87
2023-01-07T10:56:52.410Z,-7.90
2023-01-07T10:59:22.270Z,-7.91
2023-01-07T11:01:53.455Z,-7.97
2023-01-07T11:04:21.146Z,-8.01
2023-01-07T11:06:49.321Z,-8.05
2023-01-07T11:09:23.717Z,-8.07
2023-01-07T11:11:51.697Z,-8.13
2023-01-07T11:14:27.459Z,-8.20
2023-01-07T11:17:00.668Z,-8.17
2023-01-07T11:19:52.435Z,-8.15
2023-01-07T11:22:25.617Z,-8.16
2023-01-07T11:24:53.711Z,-7.98
2023-01-07T11:27:23.428Z,-7.93
2023-01-07T11:30:03.752Z,-7.94
2023-01-07T11:32:33.125Z,-7.98
2023-01-07T11:35:02.484Z,-8.09
2023-01-07T11:37:33.978Z,-8.00
2023-01-07T11:40:04.640Z,-8.00
2023-01-07T11:42:40.404Z,-7.96
2023-01-07T11:45:28.507Z,-8.01
2023-01-07T11:48:10.455Z,-8.05
2023-01-07T11:50:38.895Z,-8.00
2023-01-07T11:53:27.379Z,-8.02
2023-01-07T11:55:57.505Z,-8.14
2023-01-07T11:58:28.649Z,-8.11
2023-01-07T12:01:09.219Z,-8.17
2023-01-07T12:03:39.621Z,-8.19
2023-01-07T12:06:27.833Z,-7.97
2023-01-07T12:09:00.983Z,-7.95
2023-01-07T12:11:34.176Z,-7.93
2023-01-07T12:14:24.115Z,-7.96
2023-01-07T12:16:51.820Z,-7.93
2023-01-07T12:19:39.102Z,-7.95
2023-01-07T12:22:08.634Z,-7.94
2023-01-07T12:24:38.573Z,-7.94
2023-01-07T12:27:15.782Z,-8.05
2023-01-07T12:30:05.273Z,-8.00
2023-01-07T12:32:47.227Z,-7.98
2023-01-07T12:35:30.177Z,-7.94
2023-01-07T12:38:05.933Z,-7.98
2023-01-07T12:40:45.277Z,-7.88
2023-01-07T12:43:24.592Z,-7.89
2023-01-07T12:45:56.217Z,-7.88
2023-01-07T12:48:45.752Z,-7.89
2023-01-07T12:51:22.774Z,-7.84
2023-01-07T12:54:18.196Z,-7.80
2023-01-07T12:56:58.561Z,-7.76
2023-01-07T12:59:46.751Z,-7.77
2023-01-07T13:02:32.965Z,-7.83
2023-01-07T13:05:12.779Z,-7.80
2023-01-07T13:07:42.732Z,-7.82
2023-01-07T13:10:19.195Z,-7.83
2023-01-07T13:12:49.170Z,-7.86
2023-01-07T13:15:23.832Z,-7.84
2023-01-07T13:17:54.012Z,-7.82
2023-01-07T13:20:56.394Z,-7.86
2023-01-07T13:23:46.344Z,-7.94
2023-01-07T13:26:52.337Z,-7.93
2023-01-07T13:29:32.893Z,-7.97
2023-01-07T13:32:23.099Z,-8.01
2023-01-07T13:35:24.856Z,-8.03
2023-01-07T13:38:24.416Z,-8.07
2023-01-07T13:41:04.356Z,-8.16
2023-01-07T13:44:07.310Z,-8.30
2023-01-07T13:46:38.685Z,-8.27
2023-01-07T13:49:06.087Z,-8.32
2023-01-07T13:51:36.776Z,-8.40
2023-01-07T13:54:03.958Z,-8.57
2023-01-07T13:56:36.400Z,-8.51
2023-01-07T13:59:03.939Z,-8.55
2023-01-07T14:01:35.696Z,-8.57
2023-01-07T14:04:03.320Z,-8.57
2023-01-07T14:06:29.895Z,-8.62
2023-01-07T14:09:16.285Z,-8.66
2023-01-07T14:12:25.836Z,-8.70
2023-01-07T14:14:58.302Z,-8.76
2023-01-07T14:17:49.803Z,-8.82
2023-01-07T14:20:41.290Z,-8.85
2023-01-07T14:23:31.634Z,-8.97
2023-01-07T14:26:29.129Z,-8.93
2023-01-07T14:29:24.815Z,-8.96
2023-01-07T14:31:52.977Z,-9.00
2023-01-07T14:34:25.619Z,-9.03
2023-01-07T14:37:01.635Z,-9.16
2023-01-07T14:39:43.060Z,-9.17
2023-01-07T14:42:18.865Z,-9.10
2023-01-07T14:44:51.045Z,-9.15
2023-01-07T14:47:45.835Z,-9.15
2023-01-07T14:50:38.249Z,-9.19
2023-01-07T14:53:43.117Z,-9.23
2023-01-07T14:56:54.646Z,-9.27
2023-01-07T14:59:21.221Z,-9.30
2023-01-07T15:02:15.730Z,-9.31
2023-01-07T15:05:01.404Z,-9.33
2023-01-07T15:07:34.077Z,-9.35
2023-01-07T15:10:30.639Z,-9.47
2023-01-07T15:13:18.681Z,-9.37
2023-01-07T15:16:01.753Z,-9.35
2023-01-07T15:18:42.768Z,-9.36
2023-01-07T15:21:59.205Z,-9.36
2023-01-07T15:24:44.699Z,-9.36
2023-01-07T15:27:17.257Z,-9.36
2023-01-07T15:30:03.887Z,-9.37
2023-01-07T15:32:59.541Z,-9.37
2023-01-07T15:35:33.619Z,-9.45
2023-01-07T15:38:02.833Z,-9.40
2023-01-07T15:40:29.914Z,-9.39
2023-01-07T15:42:58.960Z,-9.51
2023-01-07T15:45:27.779Z,-9.51
2023-01-07T15:48:10.661Z,-9.35
2023-01-07T15:50:37.779Z,-9.39
2023-01-07T15:53:10.971Z,-9.35
2023-01-07T15:55:45.057Z,-9.37
2023-01-07T15:58:18.664Z,-9.49
2023-01-07T16:00:50.964Z,-9.41
2023-01-07T16:03:19.892Z,-9.40
2023-01-07T16:05:47.372Z,-9.45
2023-01-07T16:08:27.161Z,-9.42
2023-01-07T16:11:05.026Z,-9.55
2023-01-07T16:13:33.020Z,-9.44
2023-01-07T16:16:03.329Z,-9.45
2023-01-07T16:18:34.577Z,-9.47
2023-01-07T16:21:08.486Z,-9.48
2023-01-07T16:23:37.848Z,-9.48
2023-01-07T16:26:06.284Z,-9.49
2023-01-07T16:28:39.849Z,-9.60
2023-01-07T16:31:10.489Z,-9.50
2023-01-07T16:33:38.473Z,-9.49
2023-01-07T16:36:29.187Z,-9.60
2023-01-07T16:39:00.412Z,-9.54
2023-01-07T16:41:29.824Z,-9.49
2023-01-07T16:43:58.309Z,-9.50
2023-01-07T16:46:30.070Z,-9.51
2023-01-07T16:49:09.179Z,-9.51
2023-01-07T16:51:54.449Z,-9.53
2023-01-07T16:54:25.423Z,-9.54
2023-01-07T16:56:55.040Z,-9.57
2023-01-07T16:59:26.345Z,-9.59
2023-01-07T17:01:53.798Z,-9.59
2023-01-07T17:04:27.875Z,-9.59
2023-01-07T17:06:54.995Z,-9.62
2023-01-07T17:09:26.754Z,-9.73
2023-01-07T17:11:54.700Z,-9.71
2023-01-07T17:14:34.027Z,-9.64
2023-01-07T17:17:02.599Z,-9.72
2023-01-07T17:19:41.584Z,-9.63
2023-01-07T17:22:28.039Z,-9.60
2023-01-07T17:25:02.758Z,-9.66
2023-01-07T17:27:30.983Z,-9.74
2023-01-07T17:30:01.988Z,-9.65
2023-01-07T17:32:29.704Z,-9.75
2023-01-07T17:35:02.788Z,-9.66
2023-01-07T17:37:29.965Z,-9.69
2023-01-07T17:39:56.589Z,-9.69
2023-01-07T17:42:46.946Z,-9.82
2023-01-07T17:45:16.582Z,-9.81
2023-01-07T17:47:44.048Z,-9.68
2023-01-07T17:50:15.093Z,-9.70
2023-01-07T17:52:48.224Z,-9.81
2023-01-07T17:55:17.965Z,-9.84
2023-01-07T17:57:45.086Z,-9.85
2023-01-07T18:00:14.905Z,-9.76
2023-01-07T18:02:42.425Z,-9.78
2023-01-07T18:05:14.873Z,-9.81
2023-01-07T18:07:41.906Z,-9.82
2023-01-07T18:10:12.303Z,-9.84
2023-01-07T18:12:40.307Z,-9.85
2023-01-07T18:15:17.837Z,-9.83
2023-01-07T18:17:45.710Z,-9.94
2023-01-07T18:20:14.326Z,-9.84
2023-01-07T18:22:42.508Z,-9.82
2023-01-07T18:25:15.758Z,-9.88
2023-01-07T18:27:42.840Z,-9.88
2023-01-07T18:30:13.561Z,-9.78
2023-01-07T18:32:40.401Z,-9.76
2023-01-07T18:35:08.277Z,-9.74
2023-01-07T18:37:34.999Z,-9.71
2023-01-07T18:40:03.527Z,-9.67
2023-01-07T18:42:31.704Z,-9.67
2023-01-07T18:44:58.446Z,-9.62
2023-01-07T18:47:25.304Z,-9.59
2023-01-07T18:49:52.300Z,-9.52
2023-01-07T18:52:19.084Z,-9.52
2023-01-07T18:54:46.003Z,-9.50
2023-01-07T18:57:14.469Z,-9.49
2023-01-07T18:59:41.572Z,-9.55
2023-01-07T19:02:15.154Z,-9.53
2023-01-07T19:04:42.112Z,-9.37
2023-01-07T19:07:09.681Z,-9.34
2023-01-07T19:09:36.427Z,-9.28
2023-01-07T19:12:04.426Z,-9.22
2023-01-07T19:14:31.161Z,-9.26
2023-01-07T19:16:57.903Z,-9.12
2023-01-07T19:19:24.899Z,-9.06
2023-01-07T19:21:51.558Z,-9.02
2023-01-07T19:24:18.296Z,-8.98
2023-01-07T19:26:46.883Z,-8.95
2023-01-07T19:29:14.200Z,-8.93
2023-01-07T19:31:43.127Z,-8.89
2023-01-07T19:34:10.161Z,-8.85
2023-01-07T19:36:36.813Z,-8.83
2023-01-07T19:39:04.035Z,-8.86
2023-01-07T19:41:32.934Z,-8.73
2023-01-07T19:44:00.437Z,-8.70
2023-01-07T19:46:27.961Z,-8.63
2023-01-07T19:48:54.968Z,-8.62
2023-01-07T19:51:21.602Z,-8.72
2023-01-07T19:53:48.282Z,-8.61
2023-01-07T19:56:15.495Z,-8.59
2023-01-07T19:58:42.196Z,-8.57
2023-01-07T20:01:12.417Z,-8.53
2023-01-07T20:03:39.764Z,-8.52
2023-01-07T20:06:12.497Z,-8.50
2023-01-07T20:08:40.260Z,-8.48
2023-01-07T20:11:07.372Z,-8.56
2023-01-07T20:13:35.230Z,-8.45
2023-01-07T20:16:06.832Z,-8.41
2023-01-07T20:18:38.430Z,-8.37
2023-01-07T20:21:06.156Z,-8.34
2023-01-07T20:23:36.011Z,-8.38
2023-01-07T20:26:06.077Z,-8.25
2023-01-07T20:28:33.989Z,-8.26
2023-01-07T20:31:04.084Z,-8.22
2023-01-07T20:33:30.804Z,-8.21
2023-01-07T20:36:09.699Z,-8.16
2023-01-07T20:38:37.069Z,-8.25
2023-01-07T20:41:05.788Z,-8.14
2023-01-07T20:43:33.218Z,-8.14
2023-01-07T20:46:01.900Z,-8.09
2023-01-07T20:48:30.007Z,-8.05
2023-01-07T20:50:57.151Z,-8.03
2023-01-07T20:53:24.502Z,-8.02
2023-01-07T20:55:59.352Z,-8.04
2023-01-07T20:58:26.844Z,-8.08
2023-01-07T21:00:54.006Z,-8.03
2023-01-07T21:03:20.822Z,-8.03
2023-01-07T21:05:48.007Z,-8.03
2023-01-07T21:08:15.174Z,-8.04
2023-01-07T21:10:43.164Z,-8.07
2023-01-07T21:13:09.807Z,-8.16
2023-01-07T21:15:38.412Z,-8.15
2023-01-07T21:18:05.156Z,-8.05
2023-01-07T21:20:31.971Z,-8.01
2023-01-07T21:22:59.077Z,-8.01
2023-01-07T21:25:25.911Z,-8.00
2023-01-07T21:27:52.573Z,-7.97
2023-01-07T21:30:19.704Z,-7.98
2023-01-07T21:32:47.260Z,-8.05
2023-01-07T21:35:14.707Z,-8.04
2023-01-07T21:37:41.685Z,-8.01
2023-01-07T21:40:08.827Z,-7.97
2023-01-07T21:42:36.413Z,-7.94
2023-01-07T21:45:04.363Z,-7.89
2023-01-07T21:47:31.033Z,-7.86
2023-01-07T21:49:57.622Z,-7.90
2023-01-07T21:52:24.687Z,-7.79
2023-01-07T21:54:56.083Z,-7.77
2023-01-07T21:57:23.779Z,-7.77
2023-01-07T21:59:50.771Z,-7.74
2023-01-07T22:02:18.766Z,-7.75
2023-01-07T22:04:47.571Z,-7.80
2023-01-07T22:07:16.607Z,-7.83
2023-01-07T22:09:44.057Z,-7.79
2023-01-07T22:12:11.868Z,-7.81
2023-01-07T22:14:39.047Z,-7.84
2023-01-07T22:17:06.708Z,-7.95
2023-01-07T22:19:33.904Z,-7.87
2023-01-07T22:22:01.488Z,-7.89
2023-01-07T22:24:29.521Z,-7.95
2023-01-07T22:26:57.368Z,-7.97
2023-01-07T22:29:24.363Z,-7.98
2023-01-07T22:31:52.867Z,-8.09
2023-01-07T22:34:20.309Z,-7.99
2023-01-07T22:36:56.130Z,-7.95
2023-01-07T22:39:37.745Z,-7.94
2023-01-07T22:42:17.450Z,-7.93
2023-01-07T22:44:48.716Z,-8.07
2023-01-07T22:47:19.529Z,-7.96
2023-01-07T22:49:49.251Z,-7.98
2023-01-07T22:52:16.240Z,-8.01
2023-01-07T22:54:42.969Z,-8.09
2023-01-07T22:57:12.001Z,-8.11
2023-01-07T22:59:38.774Z,-8.00
2023-01-07T23:02:06.043Z,-8.01
2023-01-07T23:04:33.139Z,-8.02
2023-01-07T23:06:59.963Z,-8.02
2023-01-07T23:09:26.653Z,-8.04
2023-01-07T23:11:59.235Z,-8.05
2023-01-07T23:14:27.120Z,-8.09
2023-01-07T23:16:55.135Z,-8.11
2023-01-07T23:19:22.428Z,-8.22
2023-01-07T23:21:53.241Z,-8.13
2023-01-07T23:24:20.568Z,-8.13
2023-01-07T23:26:49.033Z,-8.14
2023-01-07T23:29:15.810Z,-8.13
2023-01-07T23:31:42.808Z,-8.16
2023-01-07T23:34:09.553Z,-8.21
2023-01-07T23:36:37.254Z,-8.24
2023-01-07T23:39:05.170Z,-8.27
2023-01-07T23:41:32.620Z,-8.28
2023-01-07T23:43:59.290Z,-8.30
2023-01-07T23:46:26.255Z,-8.31
2023-01-07T23:48:52.856Z,-8.31
2023-01-07T23:51:21.241Z,-8.36
2023-01-07T23:53:48.403Z,-8.35
2023-01-07T23:56:18.102Z,-8.38
2023-01-07T23:58:44.791Z,-8.40
